Portada
METAR-TAF:

METAR-TAF

Aeropuertos :

Aeropuerto Internacional de Lárnaca

Lárnaca, Chipre

latitud: 34-53N, longitud: 033-38E, altitud: 2 m

Observación

El informe se hizo hace 28 minutos, a las 03:00 UTC
Viento 2 kt del oeste
Temperatura 18°C
Humedad 94%
Presión 1014 hPa
Visibilidad 10 km o más
Escasas nubes a una altura de 2500 ft

METAR: LCLK 220300Z 28002KT 9999 FEW025 18/17 Q1014 NOSIG

Hora: 06:28 (03:28 UTC)

Pronóstico

El informe se hizo hace 3 horas y 58 minutos, a las 23:30 UTC
Pronóstico válido del 22 a las 00 UTC al 22 a las 24 UTC
Viento 6 kt del noroeste
Visibilidad 10 km o más
Escasas nubes a una altura de 2500 ft
Evolucionando progresivamente
del 22 a las 08 UTC al 22 a las 11 UTC
Viento 12 kt del sureste
Evolucionando progresivamente
del 22 a las 16 UTC al 22 a las 18 UTC
Viento 8 kt del norte-noreste

TAF: LCLK 212330Z 2200/2224 32006KT 9999 FEW025 BECMG 2208/2211 13012KT BECMG 2216/2218 02008KT

Observaciones y pronósticos meteorológicos de más de 4000 aeropuertos (mensajes METAR y TAF).

Los puntos amarillos y rojos representan las estaciones disponibles.

Ponga el ratón en el punto deseado para ver el nombre de la estación.

Haga clic para ver las observaciones y los pronósticos meteorológicos.

Para cambiar el mapa : haga clic en los botones verdes con una cruz de color negro para hacer un zoom, en el botón verde con un guión para alejar o en las flechas verdes para mapas adyacentes.


METAR-TAF: